Collinsville, IL

9:10 AM CST on November 23, 2014 (GMT -0600)
Collinsville West | Change Station
CLOSE
Current Station
Personal Weather Station
Location: Collinsville, IL
Elevation: 587 ft
Nearby Weather Stations

Elev 587 ft 38.68 °N, 90.01 °W | Updated 1 second ago

Overcast
Overcast
53.2 °F
Feels Like 53.2 °F
N
5.0
Wind Variable Wind from East
Gusts 5.0 mph

Today
High -- | Low -- °F
--% Chance of Precip.
Yesterday
High -- | Low -- °F
Precip. -- in
6:50 AM 4:41 PM
New Moon, 1% visible
Pressure 29.68 in
Visibility 10.0 miles
Clouds Few 6500 ft
Mostly Cloudy 8000 ft
Overcast 9500 ft
Dew Point 50 °F
Humidity 90%
Rainfall 0.00 in
Snow Depth Not available.
UV 0.0 out of 12
Pollen .40 out of 12
Air Quality Not available.
Flu Activity Not available.
METAR KCPS 231453Z 15011KT 10SM FEW065 BKN080 OVC095 12/11 A2968 RMK AO2 RAB1358E51 SLP051 P0001 60001 T01220106 58024

More Conditions Fewer Conditions

Pressure 29.68 in
Visibility 10.0 miles
Clouds Few 6500 ft
Mostly Cloudy 8000 ft
Overcast 9500 ft
Dew Point 50 °F
Humidity 90%
Rainfall 0.00 in
Snow Depth Not available.
UV 0.0 out of 12
Pollen .40 out of 12
Air Quality Not available.
Flu Activity Not available.
METAR KCPS 231453Z 15011KT 10SM FEW065 BKN080 OVC095 12/11 A2968 RMK AO2 RAB1358E51 SLP051 P0001 60001 T01220106 58024

More Conditions Fewer Conditions

10-Day Weather Forecast

Almanac

Astronomy

Nov. 23, 2014 Rise Set
Actual Time
Civil Twilight
Nautical Twilight
Astronomical Twilight
Moon
Length of Visible Light
Length of Day
Tomorrow will be .
, % of the Moon is Illuminated

Today's Extremes

State Highs State Lows

Community

WunderPhotos

Upload Photos

1,773,085 photos uploaded!

WunderBlogs® & News

Nearby

Air Quality

  Air Quality AQ Index Pollutant
Not available.

Snow Depth

Station Depth Elevation

Earthquake Activity

City Distance Mag. Time & Date
Minimum magnitude displayed is 2.5.

Coastal Water Temperatures

Place Temperature

Nearby Weather Stations